Time;durP1;ratioP1;P1;durP2;ratioP2;P2;SDS_P1;SDS_P2;PMS_P1;PMS_P2;Temp;Humidity;BMP_temperature;BMP_pressure;BME280_temperature;BME280_humidity;BME280_pressure;Samples;Min_cycle;Max_cycle;Signal;HPM_P1;HPM_P2
2021/01/23 00:01:26;;;;;;;37.78;15.38;;;1.20;99.90;;;;;;5048160;28;20032;-63
2021/01/23 00:03:52;;;;;;;29.88;13.95;;;1.10;99.90;;;;;;5033384;28;20025;-60
2021/01/23 00:06:19;;;;;;;30.02;13.95;;;1.20;99.90;;;;;;5045566;28;20392;-62
2021/01/23 00:08:44;;;;;;;32.58;15.18;;;1.10;99.90;;;;;;5042882;28;20044;-62
2021/01/23 00:11:10;;;;;;;31.15;14.40;;;1.10;99.90;;;;;;5026965;28;20045;-63
2021/01/23 00:13:36;;;;;;;30.90;13.50;;;1.10;99.90;;;;;;5052708;28;20040;-62
2021/01/23 00:16:02;;;;;;;32.13;16.05;;;1.20;99.90;;;;;;5052918;28;20028;-62
2021/01/23 00:18:28;;;;;;;28.77;13.73;;;1.20;99.90;;;;;;5052852;28;20071;-61
2021/01/23 00:20:53;;;;;;;33.00;14.15;;;1.20;99.90;;;;;;5035890;28;20032;-62
2021/01/23 00:23:19;;;;;;;32.50;13.55;;;1.10;99.90;;;;;;5052539;28;20112;-62
2021/01/23 00:25:45;;;;;;;30.60;13.20;;;1.10;99.90;;;;;;5052647;28;20029;-63
2021/01/23 00:28:11;;;;;;;31.50;14.10;;;1.10;99.90;;;;;;5052840;28;20483;-63
2021/01/23 00:30:37;;;;;;;29.45;13.38;;;1.10;99.90;;;;;;5051164;28;20060;-61
2021/01/23 00:33:03;;;;;;;28.13;13.25;;;1.10;99.90;;;;;;5052465;28;20075;-62
2021/01/23 00:35:29;;;;;;;33.00;13.18;;;1.10;99.90;;;;;;5034914;28;20037;-61
2021/01/23 00:37:54;;;;;;;27.17;13.20;;;1.10;99.90;;;;;;5034375;28;20032;-60
2021/01/23 00:40:20;;;;;;;29.27;12.93;;;1.10;99.90;;;;;;5052006;28;20040;-63
2021/01/23 00:42:46;;;;;;;28.73;13.15;;;1.10;99.90;;;;;;5034358;28;20086;-63
2021/01/23 00:45:13;;;;;;;30.73;13.35;;;1.10;99.90;;;;;;5052358;28;20032;-63
2021/01/23 00:47:38;;;;;;;28.38;12.80;;;1.10;99.90;;;;;;5052443;28;20078;-61
2021/01/23 00:50:05;;;;;;;27.83;12.68;;;1.10;99.90;;;;;;5052302;28;20488;-61
2021/01/23 00:52:30;;;;;;;28.98;12.98;;;1.00;99.90;;;;;;4336475;28;10000713;-61
2021/01/23 00:54:56;;;;;;;27.95;12.05;;;1.00;99.90;;;;;;5064755;23;20462;-57
2021/01/23 00:57:21;;;;;;;29.92;13.05;;;1.00;99.90;;;;;;5033511;28;20042;-53
2021/01/23 00:59:47;;;;;;;29.27;12.57;;;0.90;99.90;;;;;;5034218;28;20028;-57
2021/01/23 01:02:12;;;;;;;28.45;13.55;;;0.90;99.90;;;;;;5034660;28;20472;-56
2021/01/23 01:04:38;;;;;;;30.35;12.68;;;0.80;99.90;;;;;;5046448;28;20026;-52
2021/01/23 01:07:04;;;;;;;27.73;13.00;;;0.80;99.90;;;;;;5023802;28;20496;-57
2021/01/23 01:09:30;;;;;;;27.58;12.50;;;0.80;99.90;;;;;;5038624;28;20037;-52
2021/01/23 01:11:55;;;;;;;30.27;13.52;;;0.80;99.90;;;;;;5049024;28;20040;-55
2021/01/23 01:14:21;;;;;;;28.38;12.77;;;0.70;99.90;;;;;;5017894;28;20430;-56
2021/01/23 01:16:47;;;;;;;33.05;13.30;;;0.70;99.90;;;;;;5045325;28;20112;-54
2021/01/23 01:19:13;;;;;;;31.27;12.73;;;0.80;99.90;;;;;;5042120;28;20559;-59
2021/01/23 01:21:38;;;;;;;30.13;12.45;;;0.80;99.90;;;;;;5038152;28;20095;-55
2021/01/23 01:24:05;;;;;;;30.77;13.38;;;0.90;99.90;;;;;;5048466;28;20396;-52
2021/01/23 01:26:30;;;;;;;29.95;14.32;;;0.90;99.90;;;;;;5037052;28;20036;-58
2021/01/23 01:28:56;;;;;;;25.90;12.57;;;1.00;99.90;;;;;;5043103;28;20034;-57
2021/01/23 01:31:22;;;;;;;28.48;11.88;;;1.00;99.90;;;;;;5026424;28;20507;-58
2021/01/23 01:33:48;;;;;;;28.60;12.45;;;1.00;99.90;;;;;;5018209;28;20057;-58
2021/01/23 01:36:15;;;;;;;27.48;12.20;;;1.00;99.90;;;;;;5032159;28;20026;-55
2021/01/23 01:38:41;;;;;;;26.67;12.60;;;1.00;99.90;;;;;;5013882;28;20117;-54
2021/01/23 01:41:06;;;;;;;32.00;12.43;;;0.90;99.90;;;;;;5019261;28;20337;-55
2021/01/23 01:43:32;;;;;;;26.38;11.98;;;0.90;99.90;;;;;;5034209;28;20025;-58
2021/01/23 01:45:58;;;;;;;28.92;12.60;;;0.90;99.90;;;;;;5051834;28;20025;-54
2021/01/23 01:48:24;;;;;;;28.75;14.27;;;0.90;99.90;;;;;;5033568;28;20025;-59
2021/01/23 01:50:53;;;;;;;30.08;12.40;;;1.00;99.90;;;;;;5033681;28;20033;-55
2021/01/23 01:53:21;;;;;;;27.05;12.13;;;1.00;99.90;;;;;;5031800;28;20075;-55
2021/01/23 01:55:47;;;;;;;25.20;11.43;;;0.90;99.90;;;;;;5014322;28;20034;-54
2021/01/23 01:58:13;;;;;;;25.63;11.85;;;0.90;99.90;;;;;;5014049;28;20018;-56
2021/01/23 02:00:38;;;;;;;29.15;12.77;;;1.00;99.90;;;;;;5025887;28;20083;-54
2021/01/23 02:03:19;;;;;;;26.67;12.13;;;1.00;99.90;;;;;;5017939;28;20405;-57
2021/01/23 02:06:09;;;;;;;28.92;12.32;;;1.00;99.90;;;;;;5004268;28;20048;-57
2021/01/23 02:08:58;;;;;;;29.02;12.60;;;1.00;99.90;;;;;;5039154;28;20048;-56
2021/01/23 02:11:50;;;;;;;27.23;12.10;;;1.10;99.90;;;;;;5001796;28;20049;-55
2021/01/23 02:14:24;;;;;;;28.40;12.55;;;1.10;99.90;;;;;;5028886;28;20067;-54
2021/01/23 02:16:52;;;;;;;29.17;12.20;;;1.20;99.90;;;;;;5045680;28;20472;-57
2021/01/23 02:19:27;;;;;;;28.75;12.02;;;1.30;99.90;;;;;;5034375;28;20061;-54
2021/01/23 02:21:56;;;;;;;26.45;11.85;;;1.20;99.90;;;;;;5045455;28;20108;-53
2021/01/23 02:24:26;;;;;;;28.35;11.82;;;1.30;99.90;;;;;;5039443;28;20029;-53
2021/01/23 02:26:58;;;;;;;26.75;12.43;;;1.30;99.90;;;;;;5042733;28;20029;-56
2021/01/23 02:29:39;;;;;;;26.02;11.13;;;1.40;99.90;;;;;;5026306;28;20029;-52
2021/01/23 02:32:07;;;;;;;27.20;12.00;;;1.40;99.90;;;;;;5035169;28;20495;-55
2021/01/23 02:34:34;;;;;;;29.52;11.60;;;1.40;99.90;;;;;;5027578;28;20121;-56
2021/01/23 02:37:01;;;;;;;24.83;11.00;;;1.30;99.90;;;;;;5032597;28;20029;-57
2021/01/23 02:39:28;;;;;;;27.40;11.40;;;1.30;99.90;;;;;;5014106;28;20491;-56
2021/01/23 02:41:54;;;;;;;26.35;12.15;;;1.30;99.90;;;;;;5045402;28;20061;-56
2021/01/23 02:44:20;;;;;;;25.27;11.07;;;1.30;99.90;;;;;;5034864;28;20084;-53
2021/01/23 02:46:50;;;;;;;26.25;11.95;;;1.20;99.90;;;;;;5051252;28;20373;-56
2021/01/23 02:49:15;;;;;;;27.30;11.90;;;1.20;99.90;;;;;;5042519;28;20407;-54
2021/01/23 02:52:00;;;;;;;28.73;11.77;;;1.20;99.90;;;;;;5037006;28;20032;-60
2021/01/23 02:54:46;;;;;;;29.40;11.27;;;1.20;99.90;;;;;;5023954;28;20079;-56
2021/01/23 02:57:13;;;;;;;25.23;11.25;;;1.20;99.90;;;;;;5021419;28;20078;-59
2021/01/23 02:59:42;;;;;;;26.38;10.77;;;1.20;99.90;;;;;;5029045;28;20304;-55
2021/01/23 03:02:09;;;;;;;;;;;1.20;99.90;;;;;;5029726;28;20459;-59
2021/01/23 03:04:40;;;;;;;24.40;11.18;;;1.20;99.90;;;;;;5022033;28;19967;-57
2021/01/23 03:07:06;;;;;;;24.90;9.88;;;1.20;99.90;;;;;;5033313;28;20116;-55
2021/01/23 03:09:32;;;;;;;26.95;10.05;;;1.30;99.90;;;;;;5036766;28;20029;-56
2021/01/23 03:11:58;;;;;;;27.60;11.35;;;1.30;99.90;;;;;;5054019;28;20025;-57
2021/01/23 03:14:24;;;;;;;27.58;11.60;;;1.30;99.90;;;;;;5040060;28;20400;-59
2021/01/23 03:16:57;;;;;;;25.30;12.10;;;1.40;99.90;;;;;;5046105;28;20485;-56
2021/01/23 03:19:23;;;;;;;26.63;10.80;;;1.30;99.90;;;;;;5028418;28;20041;-59
2021/01/23 03:21:50;;;;;;;29.30;11.52;;;1.30;99.90;;;;;;5019242;28;20124;-58
2021/01/23 03:24:18;;;;;;;29.20;12.45;;;1.20;99.90;;;;;;5034856;28;20033;-58
2021/01/23 03:26:44;;;;;;;27.98;11.20;;;1.20;99.90;;;;;;5023556;28;20535;-59
2021/01/23 03:29:10;;;;;;;25.27;11.00;;;1.20;99.90;;;;;;5035833;28;20503;-55
2021/01/23 03:31:36;;;;;;;25.63;11.05;;;1.10;99.90;;;;;;5036594;28;20025;-58
2021/01/23 03:34:02;;;;;;;33.75;12.88;;;1.10;99.90;;;;;;5032936;28;20014;-53
2021/01/23 03:36:28;;;;;;;25.27;11.13;;;1.00;99.90;;;;;;5034659;28;20052;-54
2021/01/23 03:38:54;;;;;;;28.23;12.15;;;0.90;99.90;;;;;;5033926;28;20365;-56
2021/01/23 03:41:20;;;;;;;29.20;13.00;;;0.80;99.90;;;;;;5016746;28;20022;-57
2021/01/23 03:43:46;;;;;;;26.63;11.65;;;0.70;99.90;;;;;;5032704;28;20052;-58
2021/01/23 03:46:12;;;;;;;26.42;11.23;;;0.70;99.90;;;;;;5037915;28;20373;-58
2021/01/23 03:48:38;;;;;;;27.88;11.10;;;0.70;99.90;;;;;;5045722;28;20056;-55
2021/01/23 03:51:04;;;;;;;31.40;11.95;;;0.60;99.90;;;;;;5027275;28;20126;-57
2021/01/23 03:53:30;;;;;;;27.33;10.75;;;0.60;99.90;;;;;;5053838;28;20087;-56
2021/01/23 03:55:56;;;;;;;30.77;13.18;;;0.50;99.90;;;;;;5035988;28;20075;-56
2021/01/23 03:58:22;;;;;;;29.50;11.88;;;0.50;99.90;;;;;;5041248;28;20029;-54
2021/01/23 04:00:47;;;;;;;26.02;12.88;;;0.50;99.90;;;;;;5033832;28;20384;-56
2021/01/23 04:03:13;;;;;;;29.55;12.25;;;0.50;99.90;;;;;;5016019;28;20468;-59
2021/01/23 04:05:39;;;;;;;26.02;12.30;;;0.50;99.90;;;;;;5037050;28;20024;-58
2021/01/23 04:08:06;;;;;;;28.50;12.32;;;0.40;99.90;;;;;;5053537;28;20847;-58
2021/01/23 04:10:32;;;;;;;29.60;14.30;;;0.40;99.90;;;;;;5053229;28;20025;-58
2021/01/23 04:12:58;;;;;;;29.70;12.27;;;0.40;99.90;;;;;;5040491;28;20040;-55
2021/01/23 04:15:23;;;;;;;28.10;12.43;;;0.40;99.90;;;;;;5032162;28;20492;-57
2021/01/23 04:17:50;;;;;;;33.22;13.27;;;0.40;99.90;;;;;;5036900;28;20116;-57
2021/01/23 04:20:16;;;;;;;27.02;13.18;;;0.40;99.90;;;;;;5045577;28;20022;-58
2021/01/23 04:22:42;;;;;;;31.95;13.40;;;0.50;99.90;;;;;;5033469;28;20140;-58
2021/01/23 04:25:09;;;;;;;32.85;12.88;;;0.40;99.90;;;;;;5033263;28;20091;-54
2021/01/23 04:27:35;;;;;;;30.00;12.25;;;0.40;99.90;;;;;;5020243;28;20392;-56
2021/01/23 04:30:01;;;;;;;30.08;12.90;;;0.50;99.90;;;;;;5025812;28;20028;-56
2021/01/23 04:32:27;;;;;;;28.50;13.90;;;0.50;99.90;;;;;;5045635;28;20108;-57
2021/01/23 04:34:54;;;;;;;32.78;13.70;;;0.50;99.90;;;;;;5037230;28;20097;-58
2021/01/23 04:37:19;;;;;;;31.98;12.43;;;0.50;99.90;;;;;;5052849;28;20279;-58
2021/01/23 04:39:45;;;;;;;30.13;14.05;;;0.60;99.90;;;;;;5034545;28;20024;-58
2021/01/23 04:42:11;;;;;;;29.38;12.98;;;0.70;99.90;;;;;;5049691;28;20061;-56
2021/01/23 04:44:37;;;;;;;32.75;13.52;;;0.80;99.90;;;;;;5015117;28;20029;-54
2021/01/23 04:47:03;;;;;;;30.58;14.18;;;0.80;99.90;;;;;;5015093;28;20026;-57
2021/01/23 04:49:33;;;;;;;28.52;13.00;;;0.90;99.90;;;;;;5014166;28;20030;-56
2021/01/23 04:52:04;;;;;;;28.35;12.07;;;0.80;99.90;;;;;;5032838;28;20026;-57
2021/01/23 04:54:34;;;;;;;27.48;11.55;;;0.80;99.90;;;;;;5046932;28;20052;-57
2021/01/23 04:57:00;;;;;;;123.35;66.65;;;0.90;99.90;;;;;;5035219;28;20515;-55
2021/01/23 04:59:26;;;;;;;41.03;19.77;;;1.10;99.90;;;;;;5038327;28;20061;-55
2021/01/23 05:02:16;;;;;;;29.80;12.13;;;1.20;99.90;;;;;;5049004;28;20052;-55
2021/01/23 05:04:44;;;;;;;26.50;12.50;;;1.20;99.90;;;;;;5022066;28;20025;-55
2021/01/23 05:07:10;;;;;;;28.97;12.10;;;1.20;99.90;;;;;;5023335;28;20044;-58
2021/01/23 05:09:37;;;;;;;26.50;12.20;;;1.20;99.90;;;;;;5030997;28;20347;-56
2021/01/23 05:12:03;;;;;;;31.65;12.68;;;1.20;99.90;;;;;;5032720;28;20029;-58
2021/01/23 05:14:29;;;;;;;29.52;12.57;;;1.20;99.90;;;;;;5014293;28;20032;-57
2021/01/23 05:17:03;;;;;;;30.20;13.23;;;1.20;99.90;;;;;;5033681;28;20124;-58
2021/01/23 05:19:42;;;;;;;28.05;11.63;;;1.10;99.90;;;;;;5051799;28;20021;-59
2021/01/23 05:22:08;;;;;;;27.95;11.38;;;1.20;99.90;;;;;;5044315;28;20026;-57
2021/01/23 05:24:52;;;;;;;29.80;12.60;;;1.20;99.90;;;;;;5032826;28;20021;-59
2021/01/23 05:27:19;;;;;;;28.20;11.40;;;1.10;99.90;;;;;;5041315;28;20078;-57
2021/01/23 05:29:58;;;;;;;28.75;11.93;;;1.10;99.90;;;;;;5039891;28;20029;-56
2021/01/23 05:32:25;;;;;;;27.67;12.30;;;1.10;99.90;;;;;;5031141;28;20033;-52
2021/01/23 05:34:50;;;;;;;28.10;13.10;;;1.10;99.90;;;;;;5037111;28;20059;-59
2021/01/23 05:37:33;;;;;;;27.83;12.45;;;1.20;99.90;;;;;;5034416;28;20021;-59
2021/01/23 05:39:59;;;;;;;26.95;12.70;;;1.10;99.90;;;;;;5050990;28;20028;-58
2021/01/23 05:42:25;;;;;;;28.10;11.95;;;1.20;99.90;;;;;;5015949;28;20037;-57
2021/01/23 05:45:13;;;;;;;25.48;11.70;;;1.30;99.90;;;;;;5029173;28;20087;-57
2021/01/23 05:47:40;;;;;;;;;;;1.40;99.90;;;;;;5044135;28;20078;-58
2021/01/23 05:50:07;;;;;;;28.77;11.88;;;1.40;99.90;;;;;;5018800;28;20003;-59
2021/01/23 05:52:33;;;;;;;29.67;12.20;;;1.50;99.90;;;;;;5036444;28;20057;-52
2021/01/23 05:55:01;;;;;;;30.88;12.38;;;1.70;99.90;;;;;;5051961;28;20378;-55
2021/01/23 05:57:27;;;;;;;27.67;11.67;;;1.90;99.90;;;;;;5044533;28;20485;-55
2021/01/23 05:59:53;;;;;;;28.27;11.98;;;2.10;99.90;;;;;;5042569;28;20050;-54
2021/01/23 06:02:20;;;;;;;28.35;10.85;;;2.20;99.90;;;;;;5019653;28;20108;-57
2021/01/23 06:04:49;;;;;;;26.55;12.45;;;2.20;99.90;;;;;;5048297;28;20134;-58
2021/01/23 06:07:40;;;;;;;26.50;11.02;;;2.20;99.90;;;;;;5032033;28;20025;-55
2021/01/23 06:10:25;;;;;;;26.25;11.70;;;2.20;99.90;;;;;;5031312;28;20112;-53
2021/01/23 06:12:52;;;;;;;27.52;11.75;;;2.10;99.90;;;;;;5046770;28;20035;-54
2021/01/23 06:15:39;;;;;;;27.85;11.77;;;2.10;99.90;;;;;;5017363;28;20031;-59
2021/01/23 06:18:27;;;;;;;29.95;11.85;;;2.20;99.90;;;;;;5025000;28;20112;-58
2021/01/23 06:20:57;;;;;;;24.48;11.45;;;2.30;99.90;;;;;;5049758;28;20033;-56
2021/01/23 06:23:49;;;;;;;26.75;11.25;;;2.40;99.90;;;;;;5056251;28;20025;-54
2021/01/23 06:26:17;;;;;;;30.15;10.90;;;2.50;99.90;;;;;;5025964;28;20029;-55
2021/01/23 06:28:42;;;;;;;32.28;12.43;;;2.50;99.90;;;;;;5046422;28;20393;-54
2021/01/23 06:31:27;;;;;;;24.33;10.40;;;2.50;99.90;;;;;;5023028;28;20034;-57
2021/01/23 06:33:53;;;;;;;28.38;11.52;;;2.60;99.90;;;;;;5024716;28;20060;-58
2021/01/23 06:36:20;;;;;;;24.75;11.18;;;2.60;99.90;;;;;;5047948;28;20060;-55
2021/01/23 06:39:09;;;;;;;25.77;10.73;;;2.60;99.90;;;;;;5016983;28;20053;-53
2021/01/23 06:41:38;;;;;;;27.58;11.20;;;2.70;99.90;;;;;;5005554;28;20034;-56
2021/01/23 06:44:07;;;;;;;24.45;9.40;;;2.70;99.90;;;;;;5033517;28;20485;-52
2021/01/23 06:46:33;;;;;;;;;;;2.70;99.90;;;;;;5024450;28;20458;-57
2021/01/23 06:49:03;;;;;;;26.30;10.13;;;2.70;99.90;;;;;;5026022;28;20004;-54
2021/01/23 06:51:28;;;;;;;21.15;9.82;;;2.80;99.90;;;;;;5049680;28;20033;-55
2021/01/23 06:54:17;;;;;;;23.17;10.65;;;2.80;99.90;;;;;;5055866;28;20055;-53
2021/01/23 06:56:52;;;;;;;25.27;10.52;;;2.80;99.90;;;;;;5037065;28;20074;-55
2021/01/23 06:59:24;;;;;;;28.83;11.43;;;2.80;99.90;;;;;;5048534;28;20041;-54
2021/01/23 07:02:04;;;;;;;23.85;10.32;;;2.80;99.90;;;;;;5017105;28;20026;-55
2021/01/23 07:04:32;;;;;;;24.98;10.10;;;2.90;99.90;;;;;;5035146;28;20029;-53
2021/01/23 07:07:00;;;;;;;24.15;10.20;;;2.80;99.90;;;;;;5035138;28;20481;-56
2021/01/23 07:09:58;;;;;;;26.08;10.05;;;2.90;99.90;;;;;;5035527;28;20064;-58
2021/01/23 07:12:40;;;;;;;;;;;2.90;99.90;;;;;;5055096;28;20102;-55
2021/01/23 07:15:30;;;;;;;23.60;10.77;;;3.00;99.90;;;;;;5024525;28;19963;-58
2021/01/23 07:17:56;;;;;;;24.60;10.07;;;3.00;99.90;;;;;;5042643;28;20030;-54
2021/01/23 07:20:22;;;;;;;27.00;10.35;;;3.00;99.90;;;;;;5049317;28;20024;-57
2021/01/23 07:22:48;;;;;;;21.20;8.95;;;3.00;99.90;;;;;;5005090;28;20447;-58
2021/01/23 07:25:15;;;;;;;25.50;10.43;;;3.10;99.90;;;;;;5017282;28;20033;-57
2021/01/23 07:27:42;;;;;;;22.05;9.20;;;3.10;99.90;;;;;;5035074;28;20025;-56
2021/01/23 07:30:16;;;;;;;24.95;9.48;;;3.10;99.90;;;;;;5034768;28;20140;-58
2021/01/23 07:32:44;;;;;;;23.02;10.18;;;3.10;99.90;;;;;;5014020;28;20449;-50
2021/01/23 07:35:11;;;;;;;24.88;9.65;;;3.10;99.90;;;;;;5014584;28;20029;-52
2021/01/23 07:37:55;;;;;;;24.63;9.40;;;3.10;99.90;;;;;;4979705;28;20034;-59
2021/01/23 07:40:22;;;;;;;27.67;10.23;;;3.20;99.90;;;;;;5011857;28;20025;-55
2021/01/23 07:42:49;;;;;;;22.75;9.98;;;3.10;99.90;;;;;;5041329;28;20108;-55
2021/01/23 07:45:16;;;;;;;21.52;9.52;;;3.20;99.90;;;;;;5033822;28;20032;-57
2021/01/23 07:47:42;;;;;;;22.20;9.02;;;3.20;99.90;;;;;;5043990;28;20104;-54
2021/01/23 07:50:13;;;;;;;22.75;9.00;;;3.20;99.90;;;;;;5022757;28;20117;-55
2021/01/23 07:52:40;;;;;;;20.95;8.88;;;3.20;99.90;;;;;;5034110;28;20030;-58
2021/01/23 07:55:09;;;;;;;23.83;8.27;;;3.20;99.90;;;;;;5043920;28;20116;-54
2021/01/23 07:57:35;;;;;;;21.92;9.02;;;3.20;99.90;;;;;;5018640;28;20366;-54
2021/01/23 08:00:03;;;;;;;23.20;8.32;;;3.30;99.90;;;;;;5029823;28;20029;-55
2021/01/23 08:02:28;;;;;;;23.38;9.32;;;3.30;99.90;;;;;;5043487;28;20039;-59
2021/01/23 08:04:55;;;;;;;20.38;9.05;;;3.40;99.90;;;;;;5022513;28;20428;-57
2021/01/23 08:07:25;;;;;;;21.40;8.57;;;3.40;99.90;;;;;;5050534;28;20071;-57
2021/01/23 08:10:11;;;;;;;24.73;9.38;;;3.40;99.90;;;;;;5053696;28;20044;-56
2021/01/23 08:12:55;;;;;;;21.63;8.52;;;3.50;99.90;;;;;;5023011;28;20558;-57
2021/01/23 08:15:29;;;;;;;21.55;7.90;;;3.50;99.90;;;;;;5024425;28;20484;-57
2021/01/23 08:17:56;;;;;;;23.05;9.95;;;3.60;99.90;;;;;;5036024;28;20025;-56
2021/01/23 08:20:34;;;;;;;20.00;8.13;;;3.60;99.90;;;;;;5035595;28;20025;-57
2021/01/23 08:23:03;;;;;;;20.20;7.63;;;3.70;99.90;;;;;;5028309;28;20075;-54
2021/01/23 08:25:55;;;;;;;20.27;8.30;;;3.70;99.90;;;;;;5033804;28;20032;-52
2021/01/23 08:28:33;;;;;;;21.35;8.18;;;3.70;99.90;;;;;;5027618;28;20033;-56
2021/01/23 08:31:20;;;;;;;19.73;7.85;;;3.80;99.90;;;;;;5018768;28;20030;-57
2021/01/23 08:33:52;;;;;;;21.90;8.38;;;3.80;99.90;;;;;;5027700;28;20033;-56
2021/01/23 08:36:18;;;;;;;21.45;7.93;;;3.80;99.90;;;;;;5014374;28;20374;-52
2021/01/23 08:38:44;;;;;;;20.95;8.35;;;3.80;99.90;;;;;;5031413;28;20032;-56
2021/01/23 08:41:09;;;;;;;19.75;7.88;;;3.90;99.90;;;;;;5033145;28;20039;-56
2021/01/23 08:43:35;;;;;;;23.83;8.63;;;3.90;99.90;;;;;;5031320;28;20439;-53
2021/01/23 08:46:01;;;;;;;18.45;7.65;;;3.90;99.90;;;;;;5022171;28;20033;-53
2021/01/23 08:48:27;;;;;;;19.50;7.80;;;3.80;99.90;;;;;;5024881;28;20056;-57
2021/01/23 08:50:53;;;;;;;22.77;7.47;;;3.80;99.90;;;;;;5046701;28;20087;-53
2021/01/23 08:53:18;;;;;;;23.45;7.97;;;3.80;99.90;;;;;;5048695;28;20029;-57
2021/01/23 08:55:44;;;;;;;19.63;7.72;;;3.70;99.90;;;;;;5015396;28;20477;-58
2021/01/23 08:58:09;;;;;;;20.20;7.72;;;3.60;99.90;;;;;;5033077;28;20032;-56
2021/01/23 09:00:35;;;;;;;21.65;8.02;;;3.60;99.90;;;;;;5033535;28;20513;-54
2021/01/23 09:03:02;;;;;;;21.13;7.97;;;3.60;99.90;;;;;;5035245;28;20029;-57
2021/01/23 09:05:28;;;;;;;20.77;8.80;;;3.60;99.90;;;;;;5052800;28;20044;-59
2021/01/23 09:07:54;;;;;;;19.75;8.73;;;3.60;99.90;;;;;;5021070;28;20053;-58
2021/01/23 09:10:20;;;;;;;22.17;8.00;;;3.60;99.90;;;;;;5032649;28;20018;-54
2021/01/23 09:12:47;;;;;;;22.55;8.55;;;3.70;99.90;;;;;;5037536;28;20074;-56
2021/01/23 09:15:15;;;;;;;21.17;8.23;;;3.80;99.90;;;;;;5046556;28;20048;-57
2021/01/23 09:17:41;;;;;;;19.63;8.38;;;3.90;99.90;;;;;;5018254;28;20029;-56
2021/01/23 09:20:08;;;;;;;19.35;7.03;;;3.90;99.90;;;;;;5047284;28;20030;-56
2021/01/23 09:22:34;;;;;;;23.05;7.88;;;4.00;99.90;;;;;;5032662;28;20022;-56
2021/01/23 09:24:59;;;;;;;20.20;7.35;;;4.00;99.90;;;;;;4998446;28;20530;-56
2021/01/23 09:27:26;;;;;;;20.27;8.70;;;4.00;99.90;;;;;;5045086;28;20138;-59
2021/01/23 09:29:53;;;;;;;21.00;8.07;;;4.30;99.90;;;;;;5036124;28;20385;-58
2021/01/23 09:32:19;;;;;;;19.80;7.13;;;4.50;99.90;;;;;;5048626;28;20013;-59
2021/01/23 09:34:45;;;;;;;20.77;8.15;;;4.70;99.90;;;;;;5039038;28;20554;-58
2021/01/23 09:37:10;;;;;;;19.02;7.25;;;4.70;99.90;;;;;;5052024;28;20029;-55
2021/01/23 09:39:36;;;;;;;21.33;8.07;;;4.80;99.90;;;;;;5028973;28;20433;-57
2021/01/23 09:42:02;;;;;;;20.17;8.07;;;4.90;99.90;;;;;;5032281;28;20025;-60
2021/01/23 09:44:28;;;;;;;23.92;9.45;;;4.90;99.90;;;;;;5040021;28;20515;-59
2021/01/23 09:46:54;;;;;;;22.10;8.15;;;5.10;99.90;;;;;;5029931;28;20037;-62
2021/01/23 09:49:21;;;;;;;22.17;7.50;;;5.00;99.90;;;;;;5035589;28;20026;-62
2021/01/23 09:51:46;;;;;;;24.35;8.18;;;5.00;99.90;;;;;;5033963;28;20082;-62
2021/01/23 09:54:12;;;;;;;19.00;7.63;;;4.90;99.90;;;;;;5014371;28;20120;-63
2021/01/23 09:56:38;;;;;;;20.23;7.18;;;4.90;99.90;;;;;;5014337;28;20018;-64
2021/01/23 09:59:04;;;;;;;20.63;8.95;;;4.90;99.90;;;;;;5014123;28;20025;-61
2021/01/23 10:01:29;;;;;;;22.40;8.20;;;4.90;99.90;;;;;;5014576;28;20022;-63
2021/01/23 10:03:56;;;;;;;18.90;8.07;;;5.00;99.90;;;;;;5026701;28;20029;-59
2021/01/23 10:06:22;;;;;;;26.60;8.52;;;5.00;99.90;;;;;;5034380;28;20095;-63
2021/01/23 10:08:47;;;;;;;21.58;7.65;;;5.10;99.90;;;;;;5051878;28;20440;-61
2021/01/23 10:11:13;;;;;;;22.38;8.25;;;5.20;99.90;;;;;;5031003;28;20037;-61
2021/01/23 10:13:38;;;;;;;18.85;7.10;;;5.20;99.90;;;;;;5020623;28;20756;-59
2021/01/23 10:16:04;;;;;;;20.10;7.05;;;5.30;99.90;;;;;;5033787;28;20029;-57
2021/01/23 10:18:35;;;;;;;20.42;8.48;;;5.20;99.90;;;;;;5033451;28;20056;-54
2021/01/23 10:21:02;;;;;;;19.95;7.28;;;5.30;99.90;;;;;;5052031;28;20381;-55
2021/01/23 10:23:28;;;;;;;20.90;7.57;;;5.60;99.90;;;;;;5033820;28;20393;-58
2021/01/23 10:25:54;;;;;;;18.75;7.18;;;5.70;99.90;;;;;;5051965;28;20033;-59
2021/01/23 10:28:20;;;;;;;17.83;6.22;;;5.80;99.90;;;;;;5051947;28;20025;-59
2021/01/23 10:30:45;;;;;;;17.67;6.50;;;5.60;99.90;;;;;;5033477;28;20027;-58
2021/01/23 10:33:11;;;;;;;18.17;6.95;;;5.50;99.90;;;;;;5033536;28;20071;-60
2021/01/23 10:35:37;;;;;;;19.67;8.77;;;5.50;99.90;;;;;;5033940;28;20507;-55
2021/01/23 10:38:02;;;;;;;19.45;7.10;;;5.60;99.90;;;;;;5033577;28;20029;-57
2021/01/23 10:40:28;;;;;;;20.05;7.88;;;5.70;99.90;;;;;;5027982;28;20028;-60
2021/01/23 10:42:54;;;;;;;20.77;7.25;;;5.60;99.90;;;;;;4978458;28;20440;-59
2021/01/23 10:45:19;;;;;;;18.77;7.43;;;5.60;99.90;;;;;;4994769;28;20023;-54
2021/01/23 10:47:45;;;;;;;18.23;6.85;;;5.50;99.90;;;;;;4994252;28;20026;-54
2021/01/23 10:50:11;;;;;;;23.73;7.53;;;5.40;99.90;;;;;;5012039;28;20029;-58
2021/01/23 10:52:36;;;;;;;18.90;6.95;;;5.40;99.90;;;;;;4997485;28;20037;-58
2021/01/23 10:55:03;;;;;;;17.92;6.93;;;5.40;99.90;;;;;;5002757;28;20125;-58
2021/01/23 10:57:29;;;;;;;22.92;9.02;;;5.70;99.90;;;;;;5002352;28;20061;-59
2021/01/23 10:59:54;;;;;;;18.20;6.63;;;5.80;99.90;;;;;;5003901;28;20425;-59
2021/01/23 11:02:20;;;;;;;19.02;8.10;;;6.00;99.90;;;;;;5013136;28;20104;-54
2021/01/23 11:04:46;;;;;;;18.33;6.43;;;6.10;99.90;;;;;;5013093;28;20444;-56
2021/01/23 11:07:11;;;;;;;18.98;7.47;;;6.20;99.90;;;;;;5033398;28;20100;-55
2021/01/23 11:09:37;;;;;;;19.52;6.65;;;6.10;99.90;;;;;;5016113;28;20033;-53
2021/01/23 11:12:03;;;;;;;16.70;5.32;;;6.30;99.90;;;;;;5016016;28;20022;-56
2021/01/23 11:14:29;;;;;;;18.27;5.63;;;6.60;99.90;;;;;;5033543;28;20030;-54
2021/01/23 11:16:55;;;;;;;16.67;5.57;;;6.70;99.90;;;;;;5033882;28;20040;-54
2021/01/23 11:19:21;;;;;;;16.15;5.00;;;6.60;99.90;;;;;;5033174;28;20026;-55
2021/01/23 11:21:46;;;;;;;14.90;5.22;;;6.50;99.90;;;;;;5033088;28;20021;-54
2021/01/23 11:24:12;;;;;;;16.90;5.55;;;6.30;99.90;;;;;;5032318;28;20040;-52
2021/01/23 11:26:38;;;;;;;15.75;5.90;;;6.20;99.90;;;;;;5015364;28;20051;-58
2021/01/23 11:29:03;;;;;;;16.02;5.88;;;6.40;99.90;;;;;;5033181;28;20448;-56
2021/01/23 11:31:29;;;;;;;16.67;5.13;;;6.50;99.90;;;;;;4999417;28;20029;-58
2021/01/23 11:33:55;;;;;;;15.63;5.10;;;6.70;99.90;;;;;;5033482;28;20030;-58
2021/01/23 11:36:20;;;;;;;15.77;5.15;;;7.00;99.90;;;;;;5015341;28;20025;-55
2021/01/23 11:38:46;;;;;;;15.80;4.90;;;7.40;99.90;;;;;;5033586;28;20048;-56
2021/01/23 11:41:12;;;;;;;16.40;5.97;;;7.90;99.90;;;;;;5033690;28;20089;-55
2021/01/23 11:43:37;;;;;;;14.52;5.40;;;8.00;99.90;;;;;;5016031;28;20140;-57
2021/01/23 11:46:03;;;;;;;17.02;5.63;;;7.80;99.90;;;;;;5034065;28;20091;-56
2021/01/23 11:48:30;;;;;;;18.25;5.88;;;7.90;99.90;;;;;;5033327;28;20032;-50
2021/01/23 11:50:56;;;;;;;15.30;5.20;;;7.60;99.90;;;;;;5015061;28;20032;-57
2021/01/23 11:53:22;;;;;;;15.80;5.97;;;7.50;99.90;;;;;;5033103;28;20107;-54
2021/01/23 11:55:49;;;;;;;17.92;6.03;;;7.70;99.90;;;;;;5013643;28;588006;-58
2021/01/23 11:58:15;;;;;;;14.75;4.85;;;8.10;99.90;;;;;;5034332;28;20021;-54
2021/01/23 12:00:41;;;;;;;15.63;5.75;;;;;;;;;;5033658;28;20445;-54
2021/01/23 12:03:07;;;;;;;18.77;5.65;;;;;;;;;;5033418;28;20034;-54
2021/01/23 12:05:33;;;;;;;14.82;5.68;;;8.50;99.90;;;;;;5033456;28;20444;-57
2021/01/23 12:07:59;;;;;;;15.40;5.38;;;8.30;99.90;;;;;;5033816;28;20040;-56
2021/01/23 12:10:26;;;;;;;14.85;4.75;;;8.60;99.90;;;;;;5034073;28;20029;-54
2021/01/23 12:12:52;;;;;;;18.33;6.60;;;8.80;99.90;;;;;;5016051;28;20037;-56
2021/01/23 12:15:18;;;;;;;16.38;5.85;;;;;;;;;;5015803;28;20099;-53
2021/01/23 12:17:45;;;;;;;14.50;5.70;;;;;;;;;;5032986;28;20022;-55
2021/01/23 12:20:11;;;;;;;17.00;5.90;;;;;;;;;;5033653;28;20474;-53
2021/01/23 12:22:38;;;;;;;15.55;5.03;;;8.90;99.90;;;;;;5015806;28;20026;-54
2021/01/23 12:25:08;;;;;;;15.00;5.10;;;8.20;99.90;;;;;;5015665;28;20033;-58
2021/01/23 12:27:35;;;;;;;14.65;5.20;;;8.60;99.90;;;;;;5016003;28;20029;-52
2021/01/23 12:30:08;;;;;;;15.45;5.82;;;9.10;99.90;;;;;;5015525;28;20083;-56
2021/01/23 12:32:35;;;;;;;18.65;6.25;;;9.20;99.90;;;;;;5030818;28;20027;-56
2021/01/23 12:35:01;;;;;;;13.70;5.00;;;9.00;99.90;;;;;;5014488;28;20033;-52
2021/01/23 12:37:28;;;;;;;14.95;5.93;;;9.50;99.90;;;;;;5028409;28;20079;-54
2021/01/23 12:39:54;;;;;;;13.55;5.32;;;9.50;99.90;;;;;;5023908;28;20052;-56
2021/01/23 12:42:20;;;;;;;15.55;5.60;;;;;;;;;;4997399;28;20050;-52
2021/01/23 12:44:46;;;;;;;17.17;5.45;;;9.40;99.90;;;;;;5017324;28;20388;-57
2021/01/23 12:47:12;;;;;;;13.77;5.03;;;8.50;99.90;;;;;;5033363;28;20029;-58
2021/01/23 12:49:38;;;;;;;16.55;4.85;;;8.60;99.90;;;;;;4999320;28;20064;-58